sensor_id;sensor_type;location;lat;lon;timestamp;P1;durP1;ratioP1;P2;durP2;ratioP2
83694;SDS011;73676;43.582;22.268;2023-12-20T00:00:38;98.78;;;53.97;;
83694;SDS011;73676;43.582;22.268;2023-12-20T00:03:04;40.88;;;24.70;;
83694;SDS011;73676;43.582;22.268;2023-12-20T00:05:30;85.70;;;48.92;;
83694;SDS011;73676;43.582;22.268;2023-12-20T00:07:57;77.70;;;53.55;;
83694;SDS011;73676;43.582;22.268;2023-12-20T00:10:22;61.28;;;36.92;;
83694;SDS011;73676;43.582;22.268;2023-12-20T00:12:47;90.97;;;56.47;;
83694;SDS011;73676;43.582;22.268;2023-12-20T00:15:13;68.57;;;43.20;;
83694;SDS011;73676;43.582;22.268;2023-12-20T00:17:38;118.55;;;73.47;;
83694;SDS011;73676;43.582;22.268;2023-12-20T00:20:03;83.55;;;52.45;;
83694;SDS011;73676;43.582;22.268;2023-12-20T00:22:30;62.03;;;36.05;;
83694;SDS011;73676;43.582;22.268;2023-12-20T00:24:55;85.38;;;51.42;;
83694;SDS011;73676;43.582;22.268;2023-12-20T00:27:21;56.58;;;32.85;;
83694;SDS011;73676;43.582;22.268;2023-12-20T00:29:46;180.23;;;82.97;;
83694;SDS011;73676;43.582;22.268;2023-12-20T00:32:14;99.30;;;48.85;;
83694;SDS011;73676;43.582;22.268;2023-12-20T00:34:40;55.58;;;31.20;;
83694;SDS011;73676;43.582;22.268;2023-12-20T00:37:05;48.15;;;29.92;;
83694;SDS011;73676;43.582;22.268;2023-12-20T00:39:31;174.50;;;79.13;;
83694;SDS011;73676;43.582;22.268;2023-12-20T00:41:56;55.67;;;30.25;;
83694;SDS011;73676;43.582;22.268;2023-12-20T00:44:21;48.22;;;27.02;;
83694;SDS011;73676;43.582;22.268;2023-12-20T00:46:46;80.82;;;47.85;;
83694;SDS011;73676;43.582;22.268;2023-12-20T00:49:12;60.05;;;36.58;;
83694;SDS011;73676;43.582;22.268;2023-12-20T00:51:37;59.25;;;35.28;;
83694;SDS011;73676;43.582;22.268;2023-12-20T00:54:02;84.85;;;54.15;;
83694;SDS011;73676;43.582;22.268;2023-12-20T00:56:28;56.45;;;33.83;;
83694;SDS011;73676;43.582;22.268;2023-12-20T00:58:54;64.13;;;36.90;;
83694;SDS011;73676;43.582;22.268;2023-12-20T01:01:19;62.15;;;36.60;;
83694;SDS011;73676;43.582;22.268;2023-12-20T01:03:44;63.60;;;37.00;;
83694;SDS011;73676;43.582;22.268;2023-12-20T01:06:09;111.45;;;56.50;;
83694;SDS011;73676;43.582;22.268;2023-12-20T01:08:35;100.43;;;52.83;;
83694;SDS011;73676;43.582;22.268;2023-12-20T01:11:00;251.23;;;120.22;;
83694;SDS011;73676;43.582;22.268;2023-12-20T01:13:28;75.32;;;40.20;;
83694;SDS011;73676;43.582;22.268;2023-12-20T01:15:54;185.25;;;91.45;;
83694;SDS011;73676;43.582;22.268;2023-12-20T01:18:20;57.50;;;33.10;;
83694;SDS011;73676;43.582;22.268;2023-12-20T01:20:45;45.40;;;28.30;;
83694;SDS011;73676;43.582;22.268;2023-12-20T01:23:11;47.22;;;28.95;;
83694;SDS011;73676;43.582;22.268;2023-12-20T01:25:36;66.32;;;35.30;;
83694;SDS011;73676;43.582;22.268;2023-12-20T01:28:03;51.83;;;28.92;;
83694;SDS011;73676;43.582;22.268;2023-12-20T01:30:28;47.15;;;29.33;;
83694;SDS011;73676;43.582;22.268;2023-12-20T01:32:54;53.78;;;30.55;;
83694;SDS011;73676;43.582;22.268;2023-12-20T01:35:19;72.22;;;38.72;;
83694;SDS011;73676;43.582;22.268;2023-12-20T01:37:44;44.33;;;25.65;;
83694;SDS011;73676;43.582;22.268;2023-12-20T01:40:10;145.93;;;71.32;;
83694;SDS011;73676;43.582;22.268;2023-12-20T01:42:36;47.63;;;28.10;;
83694;SDS011;73676;43.582;22.268;2023-12-20T01:45:01;36.70;;;23.77;;
83694;SDS011;73676;43.582;22.268;2023-12-20T01:47:27;45.95;;;27.83;;
83694;SDS011;73676;43.582;22.268;2023-12-20T01:49:53;42.90;;;25.80;;
83694;SDS011;73676;43.582;22.268;2023-12-20T01:52:19;40.30;;;22.85;;
83694;SDS011;73676;43.582;22.268;2023-12-20T01:54:44;42.42;;;25.90;;
83694;SDS011;73676;43.582;22.268;2023-12-20T01:57:10;37.60;;;23.67;;
83694;SDS011;73676;43.582;22.268;2023-12-20T01:59:37;47.67;;;27.98;;
83694;SDS011;73676;43.582;22.268;2023-12-20T02:02:04;36.63;;;24.00;;
83694;SDS011;73676;43.582;22.268;2023-12-20T02:04:29;41.17;;;25.20;;
83694;SDS011;73676;43.582;22.268;2023-12-20T02:06:56;45.15;;;24.70;;
83694;SDS011;73676;43.582;22.268;2023-12-20T02:09:22;80.35;;;42.65;;
83694;SDS011;73676;43.582;22.268;2023-12-20T02:11:47;83.35;;;45.33;;
83694;SDS011;73676;43.582;22.268;2023-12-20T02:14:13;47.53;;;26.83;;
83694;SDS011;73676;43.582;22.268;2023-12-20T02:16:38;119.20;;;61.88;;
83694;SDS011;73676;43.582;22.268;2023-12-20T02:19:05;50.28;;;30.42;;
83694;SDS011;73676;43.582;22.268;2023-12-20T02:21:32;145.93;;;81.70;;
83694;SDS011;73676;43.582;22.268;2023-12-20T02:23:59;48.10;;;28.77;;
83694;SDS011;73676;43.582;22.268;2023-12-20T02:26:24;41.28;;;26.02;;
83694;SDS011;73676;43.582;22.268;2023-12-20T02:28:49;39.28;;;23.15;;
83694;SDS011;73676;43.582;22.268;2023-12-20T02:31:15;86.60;;;51.60;;
83694;SDS011;73676;43.582;22.268;2023-12-20T02:33:40;83.75;;;50.47;;
83694;SDS011;73676;43.582;22.268;2023-12-20T02:36:07;153.50;;;91.25;;
83694;SDS011;73676;43.582;22.268;2023-12-20T02:38:32;228.63;;;125.45;;
83694;SDS011;73676;43.582;22.268;2023-12-20T02:40:58;75.68;;;46.97;;
83694;SDS011;73676;43.582;22.268;2023-12-20T02:43:24;152.85;;;91.45;;
83694;SDS011;73676;43.582;22.268;2023-12-20T02:45:49;48.65;;;30.90;;
83694;SDS011;73676;43.582;22.268;2023-12-20T02:48:14;43.95;;;27.05;;
83694;SDS011;73676;43.582;22.268;2023-12-20T02:50:40;57.97;;;37.15;;
83694;SDS011;73676;43.582;22.268;2023-12-20T02:53:05;56.20;;;38.03;;
83694;SDS011;73676;43.582;22.268;2023-12-20T02:55:30;52.22;;;34.05;;
83694;SDS011;73676;43.582;22.268;2023-12-20T02:57:56;41.45;;;26.10;;
83694;SDS011;73676;43.582;22.268;2023-12-20T03:00:21;39.03;;;21.45;;
83694;SDS011;73676;43.582;22.268;2023-12-20T03:02:46;59.67;;;28.80;;
83694;SDS011;73676;43.582;22.268;2023-12-20T03:05:13;47.35;;;21.98;;
83694;SDS011;73676;43.582;22.268;2023-12-20T03:07:38;39.58;;;24.27;;
83694;SDS011;73676;43.582;22.268;2023-12-20T03:10:04;44.47;;;25.52;;
83694;SDS011;73676;43.582;22.268;2023-12-20T03:12:29;42.60;;;24.75;;
83694;SDS011;73676;43.582;22.268;2023-12-20T03:14:55;38.20;;;22.30;;
83694;SDS011;73676;43.582;22.268;2023-12-20T03:17:20;38.50;;;24.08;;
83694;SDS011;73676;43.582;22.268;2023-12-20T03:19:46;38.58;;;24.90;;
83694;SDS011;73676;43.582;22.268;2023-12-20T03:22:11;42.83;;;27.77;;
83694;SDS011;73676;43.582;22.268;2023-12-20T03:24:36;37.22;;;23.05;;
83694;SDS011;73676;43.582;22.268;2023-12-20T03:27:02;40.58;;;23.85;;
83694;SDS011;73676;43.582;22.268;2023-12-20T03:29:27;35.60;;;21.25;;
83694;SDS011;73676;43.582;22.268;2023-12-20T03:31:52;39.25;;;22.95;;
83694;SDS011;73676;43.582;22.268;2023-12-20T03:34:18;36.47;;;22.15;;
83694;SDS011;73676;43.582;22.268;2023-12-20T03:36:43;33.83;;;21.65;;
83694;SDS011;73676;43.582;22.268;2023-12-20T03:39:09;44.10;;;25.80;;
83694;SDS011;73676;43.582;22.268;2023-12-20T03:41:35;33.75;;;20.63;;
83694;SDS011;73676;43.582;22.268;2023-12-20T03:44:00;37.88;;;22.42;;
83694;SDS011;73676;43.582;22.268;2023-12-20T03:46:26;37.53;;;25.08;;
83694;SDS011;73676;43.582;22.268;2023-12-20T03:48:51;33.67;;;21.38;;
83694;SDS011;73676;43.582;22.268;2023-12-20T03:51:16;33.58;;;21.63;;
83694;SDS011;73676;43.582;22.268;2023-12-20T03:53:42;36.83;;;20.92;;
83694;SDS011;73676;43.582;22.268;2023-12-20T03:56:07;40.78;;;26.30;;
83694;SDS011;73676;43.582;22.268;2023-12-20T03:58:32;31.88;;;19.35;;
83694;SDS011;73676;43.582;22.268;2023-12-20T04:00:58;48.78;;;28.42;;
83694;SDS011;73676;43.582;22.268;2023-12-20T04:03:24;48.55;;;24.33;;
83694;SDS011;73676;43.582;22.268;2023-12-20T04:05:50;40.80;;;25.90;;
83694;SDS011;73676;43.582;22.268;2023-12-20T04:08:15;35.63;;;21.08;;
83694;SDS011;73676;43.582;22.268;2023-12-20T04:10:41;32.63;;;20.90;;
83694;SDS011;73676;43.582;22.268;2023-12-20T04:13:06;38.35;;;25.48;;
83694;SDS011;73676;43.582;22.268;2023-12-20T04:15:31;39.35;;;24.85;;
83694;SDS011;73676;43.582;22.268;2023-12-20T04:17:57;49.65;;;36.83;;
83694;SDS011;73676;43.582;22.268;2023-12-20T04:20:22;54.22;;;38.08;;
83694;SDS011;73676;43.582;22.268;2023-12-20T04:22:48;40.58;;;25.55;;
83694;SDS011;73676;43.582;22.268;2023-12-20T04:25:14;40.28;;;25.98;;
83694;SDS011;73676;43.582;22.268;2023-12-20T04:27:39;37.97;;;24.75;;
83694;SDS011;73676;43.582;22.268;2023-12-20T04:30:06;36.47;;;24.05;;
83694;SDS011;73676;43.582;22.268;2023-12-20T04:32:31;52.58;;;32.30;;
83694;SDS011;73676;43.582;22.268;2023-12-20T04:34:58;63.92;;;44.90;;
83694;SDS011;73676;43.582;22.268;2023-12-20T04:37:23;30.98;;;20.42;;
83694;SDS011;73676;43.582;22.268;2023-12-20T04:39:49;30.75;;;20.23;;
83694;SDS011;73676;43.582;22.268;2023-12-20T04:42:15;43.00;;;22.33;;
83694;SDS011;73676;43.582;22.268;2023-12-20T04:44:40;33.65;;;22.45;;
83694;SDS011;73676;43.582;22.268;2023-12-20T04:47:05;34.95;;;22.65;;
83694;SDS011;73676;43.582;22.268;2023-12-20T04:49:31;36.50;;;22.55;;
83694;SDS011;73676;43.582;22.268;2023-12-20T04:51:56;43.78;;;27.55;;
83694;SDS011;73676;43.582;22.268;2023-12-20T04:54:22;55.38;;;33.75;;
83694;SDS011;73676;43.582;22.268;2023-12-20T04:56:47;55.58;;;31.63;;
83694;SDS011;73676;43.582;22.268;2023-12-20T04:59:12;60.47;;;33.67;;
83694;SDS011;73676;43.582;22.268;2023-12-20T05:01:40;41.10;;;28.50;;
83694;SDS011;73676;43.582;22.268;2023-12-20T05:04:05;42.88;;;28.17;;
83694;SDS011;73676;43.582;22.268;2023-12-20T05:06:31;45.50;;;28.27;;
83694;SDS011;73676;43.582;22.268;2023-12-20T05:08:56;40.42;;;29.05;;
83694;SDS011;73676;43.582;22.268;2023-12-20T05:11:21;43.72;;;29.55;;
83694;SDS011;73676;43.582;22.268;2023-12-20T05:13:47;44.78;;;25.52;;
83694;SDS011;73676;43.582;22.268;2023-12-20T05:16:12;61.58;;;31.42;;
83694;SDS011;73676;43.582;22.268;2023-12-20T05:18:39;44.47;;;26.13;;
83694;SDS011;73676;43.582;22.268;2023-12-20T05:21:04;51.15;;;28.33;;
83694;SDS011;73676;43.582;22.268;2023-12-20T05:23:29;47.40;;;28.15;;
83694;SDS011;73676;43.582;22.268;2023-12-20T05:25:55;53.40;;;28.15;;
83694;SDS011;73676;43.582;22.268;2023-12-20T05:28:20;43.53;;;26.65;;
83694;SDS011;73676;43.582;22.268;2023-12-20T05:30:45;46.15;;;27.67;;
83694;SDS011;73676;43.582;22.268;2023-12-20T05:33:11;47.63;;;29.85;;
83694;SDS011;73676;43.582;22.268;2023-12-20T05:35:36;84.22;;;47.53;;
83694;SDS011;73676;43.582;22.268;2023-12-20T05:38:02;57.65;;;35.38;;
83694;SDS011;73676;43.582;22.268;2023-12-20T05:40:27;120.93;;;64.10;;
83694;SDS011;73676;43.582;22.268;2023-12-20T05:42:52;175.45;;;81.72;;
83694;SDS011;73676;43.582;22.268;2023-12-20T05:45:17;350.15;;;156.57;;
83694;SDS011;73676;43.582;22.268;2023-12-20T05:47:43;112.32;;;60.05;;
83694;SDS011;73676;43.582;22.268;2023-12-20T05:50:08;246.55;;;132.00;;
83694;SDS011;73676;43.582;22.268;2023-12-20T05:52:35;173.63;;;96.55;;
83694;SDS011;73676;43.582;22.268;2023-12-20T05:55:00;68.57;;;45.55;;
83694;SDS011;73676;43.582;22.268;2023-12-20T05:57:28;65.93;;;41.17;;
83694;SDS011;73676;43.582;22.268;2023-12-20T05:59:54;55.35;;;32.97;;
83694;SDS011;73676;43.582;22.268;2023-12-20T06:02:19;57.67;;;36.92;;
83694;SDS011;73676;43.582;22.268;2023-12-20T06:04:44;59.80;;;36.47;;
83694;SDS011;73676;43.582;22.268;2023-12-20T06:07:13;57.95;;;35.47;;
83694;SDS011;73676;43.582;22.268;2023-12-20T06:09:38;98.40;;;52.42;;
83694;SDS011;73676;43.582;22.268;2023-12-20T06:12:04;56.25;;;34.05;;
83694;SDS011;73676;43.582;22.268;2023-12-20T06:14:29;162.45;;;68.60;;
83694;SDS011;73676;43.582;22.268;2023-12-20T06:16:55;298.48;;;137.48;;
83694;SDS011;73676;43.582;22.268;2023-12-20T06:19:21;131.50;;;69.55;;
83694;SDS011;73676;43.582;22.268;2023-12-20T06:21:46;74.80;;;45.88;;
83694;SDS011;73676;43.582;22.268;2023-12-20T06:24:11;277.85;;;144.95;;
83694;SDS011;73676;43.582;22.268;2023-12-20T06:26:37;306.20;;;135.60;;
83694;SDS011;73676;43.582;22.268;2023-12-20T06:29:02;100.32;;;57.90;;
83694;SDS011;73676;43.582;22.268;2023-12-20T06:31:27;144.00;;;82.85;;
83694;SDS011;73676;43.582;22.268;2023-12-20T06:33:53;204.90;;;97.03;;
83694;SDS011;73676;43.582;22.268;2023-12-20T06:38:47;74.70;;;45.03;;
83694;SDS011;73676;43.582;22.268;2023-12-20T06:41:13;106.68;;;53.55;;
83694;SDS011;73676;43.582;22.268;2023-12-20T06:43:39;346.65;;;116.60;;
83694;SDS011;73676;43.582;22.268;2023-12-20T06:46:04;108.25;;;53.85;;
83694;SDS011;73676;43.582;22.268;2023-12-20T06:48:29;438.17;;;153.40;;
83694;SDS011;73676;43.582;22.268;2023-12-20T06:50:55;358.85;;;156.98;;
83694;SDS011;73676;43.582;22.268;2023-12-20T06:53:20;384.77;;;187.82;;
83694;SDS011;73676;43.582;22.268;2023-12-20T06:55:45;428.38;;;175.43;;
83694;SDS011;73676;43.582;22.268;2023-12-20T06:58:10;312.90;;;126.90;;
83694;SDS011;73676;43.582;22.268;2023-12-20T07:00:36;233.73;;;117.78;;
83694;SDS011;73676;43.582;22.268;2023-12-20T07:03:01;335.70;;;138.55;;
83694;SDS011;73676;43.582;22.268;2023-12-20T07:05:27;168.40;;;79.05;;
83694;SDS011;73676;43.582;22.268;2023-12-20T07:07:52;156.38;;;82.53;;
83694;SDS011;73676;43.582;22.268;2023-12-20T07:10:17;114.28;;;66.57;;
83694;SDS011;73676;43.582;22.268;2023-12-20T07:12:43;303.83;;;133.32;;
83694;SDS011;73676;43.582;22.268;2023-12-20T07:15:09;146.30;;;78.65;;
83694;SDS011;73676;43.582;22.268;2023-12-20T07:17:34;132.40;;;75.47;;
83694;SDS011;73676;43.582;22.268;2023-12-20T07:20:00;229.20;;;115.25;;
83694;SDS011;73676;43.582;22.268;2023-12-20T07:22:29;170.75;;;82.68;;
83694;SDS011;73676;43.582;22.268;2023-12-20T07:24:54;102.75;;;60.75;;
83694;SDS011;73676;43.582;22.268;2023-12-20T07:27:19;122.97;;;73.28;;
83694;SDS011;73676;43.582;22.268;2023-12-20T07:29:45;94.60;;;60.25;;
83694;SDS011;73676;43.582;22.268;2023-12-20T07:32:10;140.77;;;83.63;;
83694;SDS011;73676;43.582;22.268;2023-12-20T07:34:35;125.97;;;83.35;;
83694;SDS011;73676;43.582;22.268;2023-12-20T07:37:01;169.02;;;99.32;;
83694;SDS011;73676;43.582;22.268;2023-12-20T07:39:26;119.68;;;72.68;;
83694;SDS011;73676;43.582;22.268;2023-12-20T07:41:51;98.55;;;57.80;;
83694;SDS011;73676;43.582;22.268;2023-12-20T07:44:16;160.68;;;94.88;;
83694;SDS011;73676;43.582;22.268;2023-12-20T07:46:42;178.25;;;101.80;;
83694;SDS011;73676;43.582;22.268;2023-12-20T07:49:07;131.40;;;77.50;;
83694;SDS011;73676;43.582;22.268;2023-12-20T07:51:33;100.90;;;58.58;;
83694;SDS011;73676;43.582;22.268;2023-12-20T07:54:00;121.30;;;64.38;;
83694;SDS011;73676;43.582;22.268;2023-12-20T07:56:25;64.22;;;41.17;;
83694;SDS011;73676;43.582;22.268;2023-12-20T07:58:50;118.50;;;79.88;;
83694;SDS011;73676;43.582;22.268;2023-12-20T08:01:16;82.95;;;55.63;;
83694;SDS011;73676;43.582;22.268;2023-12-20T08:03:42;63.78;;;43.13;;
83694;SDS011;73676;43.582;22.268;2023-12-20T08:06:07;271.63;;;167.25;;
83694;SDS011;73676;43.582;22.268;2023-12-20T08:08:33;184.30;;;104.90;;
83694;SDS011;73676;43.582;22.268;2023-12-20T08:10:58;316.23;;;201.68;;
83694;SDS011;73676;43.582;22.268;2023-12-20T08:13:25;340.27;;;181.88;;
83694;SDS011;73676;43.582;22.268;2023-12-20T08:15:51;104.28;;;57.22;;
83694;SDS011;73676;43.582;22.268;2023-12-20T08:18:16;84.45;;;49.13;;
83694;SDS011;73676;43.582;22.268;2023-12-20T08:20:42;119.93;;;72.85;;
83694;SDS011;73676;43.582;22.268;2023-12-20T08:23:07;96.53;;;59.60;;
83694;SDS011;73676;43.582;22.268;2023-12-20T08:25:32;118.47;;;74.15;;
83694;SDS011;73676;43.582;22.268;2023-12-20T08:27:58;125.00;;;77.45;;
83694;SDS011;73676;43.582;22.268;2023-12-20T08:30:23;125.07;;;75.07;;
83694;SDS011;73676;43.582;22.268;2023-12-20T08:32:48;96.88;;;62.72;;
83694;SDS011;73676;43.582;22.268;2023-12-20T08:35:14;280.85;;;181.88;;
83694;SDS011;73676;43.582;22.268;2023-12-20T08:37:39;90.03;;;58.50;;
83694;SDS011;73676;43.582;22.268;2023-12-20T08:40:04;91.47;;;57.45;;
83694;SDS011;73676;43.582;22.268;2023-12-20T08:42:30;108.05;;;72.25;;
83694;SDS011;73676;43.582;22.268;2023-12-20T08:44:57;86.70;;;55.53;;
83694;SDS011;73676;43.582;22.268;2023-12-20T08:47:23;62.53;;;41.72;;
83694;SDS011;73676;43.582;22.268;2023-12-20T08:49:48;47.55;;;31.77;;
83694;SDS011;73676;43.582;22.268;2023-12-20T08:52:14;47.03;;;29.70;;
83694;SDS011;73676;43.582;22.268;2023-12-20T08:54:39;60.88;;;40.03;;
83694;SDS011;73676;43.582;22.268;2023-12-20T08:57:04;92.15;;;58.05;;
83694;SDS011;73676;43.582;22.268;2023-12-20T08:59:31;113.20;;;61.40;;
83694;SDS011;73676;43.582;22.268;2023-12-20T09:01:57;121.43;;;53.28;;
83694;SDS011;73676;43.582;22.268;2023-12-20T09:04:22;125.18;;;59.65;;
83694;SDS011;73676;43.582;22.268;2023-12-20T09:06:47;73.78;;;41.85;;
83694;SDS011;73676;43.582;22.268;2023-12-20T09:09:13;71.18;;;45.83;;
83694;SDS011;73676;43.582;22.268;2023-12-20T09:11:41;188.70;;;108.10;;
83694;SDS011;73676;43.582;22.268;2023-12-20T09:14:07;160.52;;;89.28;;
83694;SDS011;73676;43.582;22.268;2023-12-20T09:16:33;139.48;;;80.78;;
83694;SDS011;73676;43.582;22.268;2023-12-20T09:18:58;103.03;;;62.10;;
83694;SDS011;73676;43.582;22.268;2023-12-20T09:21:24;90.20;;;55.88;;
83694;SDS011;73676;43.582;22.268;2023-12-20T09:23:49;251.40;;;129.07;;
83694;SDS011;73676;43.582;22.268;2023-12-20T09:26:16;156.40;;;90.78;;
83694;SDS011;73676;43.582;22.268;2023-12-20T09:28:41;71.80;;;44.78;;
83694;SDS011;73676;43.582;22.268;2023-12-20T09:31:07;86.13;;;54.70;;
83694;SDS011;73676;43.582;22.268;2023-12-20T09:33:33;104.65;;;64.90;;
83694;SDS011;73676;43.582;22.268;2023-12-20T09:35:58;106.85;;;64.85;;
83694;SDS011;73676;43.582;22.268;2023-12-20T09:38:23;152.98;;;97.40;;
83694;SDS011;73676;43.582;22.268;2023-12-20T09:40:50;400.20;;;202.20;;
83694;SDS011;73676;43.582;22.268;2023-12-20T09:43:17;270.80;;;139.55;;
83694;SDS011;73676;43.582;22.268;2023-12-20T09:45:47;238.48;;;128.25;;
83694;SDS011;73676;43.582;22.268;2023-12-20T09:48:12;332.65;;;152.57;;
83694;SDS011;73676;43.582;22.268;2023-12-20T09:50:39;257.95;;;133.93;;
83694;SDS011;73676;43.582;22.268;2023-12-20T09:53:05;232.45;;;127.93;;
83694;SDS011;73676;43.582;22.268;2023-12-20T09:55:34;203.80;;;120.78;;
83694;SDS011;73676;43.582;22.268;2023-12-20T09:58:01;214.65;;;132.55;;
83694;SDS011;73676;43.582;22.268;2023-12-20T10:00:26;244.00;;;149.73;;
83694;SDS011;73676;43.582;22.268;2023-12-20T10:02:59;288.40;;;165.50;;
83694;SDS011;73676;43.582;22.268;2023-12-20T10:05:28;238.60;;;142.82;;
83694;SDS011;73676;43.582;22.268;2023-12-20T10:07:54;146.68;;;90.97;;
83694;SDS011;73676;43.582;22.268;2023-12-20T10:10:19;109.68;;;67.38;;
83694;SDS011;73676;43.582;22.268;2023-12-20T10:15:28;62.80;;;33.08;;
83694;SDS011;73676;43.582;22.268;2023-12-20T10:17:55;62.22;;;35.05;;
83694;SDS011;73676;43.582;22.268;2023-12-20T10:20:21;80.78;;;49.22;;
83694;SDS011;73676;43.582;22.268;2023-12-20T10:22:46;65.95;;;37.92;;
83694;SDS011;73676;43.582;22.268;2023-12-20T10:25:12;68.78;;;34.80;;
83694;SDS011;73676;43.582;22.268;2023-12-20T10:27:38;79.82;;;39.05;;
83694;SDS011;73676;43.582;22.268;2023-12-20T10:30:03;73.75;;;36.53;;
83694;SDS011;73676;43.582;22.268;2023-12-20T10:32:29;77.38;;;43.00;;
83694;SDS011;73676;43.582;22.268;2023-12-20T10:34:56;73.78;;;47.25;;
83694;SDS011;73676;43.582;22.268;2023-12-20T10:37:21;51.53;;;32.88;;
83694;SDS011;73676;43.582;22.268;2023-12-20T10:39:51;80.63;;;49.28;;
83694;SDS011;73676;43.582;22.268;2023-12-20T10:42:17;81.03;;;49.33;;
83694;SDS011;73676;43.582;22.268;2023-12-20T10:44:43;60.60;;;38.22;;
83694;SDS011;73676;43.582;22.268;2023-12-20T10:47:08;72.50;;;42.92;;
83694;SDS011;73676;43.582;22.268;2023-12-20T10:49:34;69.93;;;42.03;;
83694;SDS011;73676;43.582;22.268;2023-12-20T10:52:01;64.75;;;39.33;;
83694;SDS011;73676;43.582;22.268;2023-12-20T10:54:27;68.05;;;42.97;;
83694;SDS011;73676;43.582;22.268;2023-12-20T10:56:53;54.60;;;36.88;;
83694;SDS011;73676;43.582;22.268;2023-12-20T10:59:19;77.68;;;55.28;;
83694;SDS011;73676;43.582;22.268;2023-12-20T11:01:45;49.83;;;32.50;;
83694;SDS011;73676;43.582;22.268;2023-12-20T11:04:13;34.78;;;24.50;;
83694;SDS011;73676;43.582;22.268;2023-12-20T11:06:51;28.90;;;18.23;;
83694;SDS011;73676;43.582;22.268;2023-12-20T11:09:35;19.02;;;14.32;;
83694;SDS011;73676;43.582;22.268;2023-12-20T11:12:18;28.73;;;20.52;;
83694;SDS011;73676;43.582;22.268;2023-12-20T11:14:49;23.58;;;16.58;;
83694;SDS011;73676;43.582;22.268;2023-12-20T11:17:15;38.22;;;20.95;;
83694;SDS011;73676;43.582;22.268;2023-12-20T11:20:17;51.17;;;29.98;;
83694;SDS011;73676;43.582;22.268;2023-12-20T11:22:36;69.00;;;45.30;;
83694;SDS011;73676;43.582;22.268;2023-12-20T11:25:03;61.80;;;39.33;;
83694;SDS011;73676;43.582;22.268;2023-12-20T11:27:30;30.92;;;19.98;;
83694;SDS011;73676;43.582;22.268;2023-12-20T11:29:56;26.13;;;17.27;;
83694;SDS011;73676;43.582;22.268;2023-12-20T11:34:47;47.22;;;31.55;;
83694;SDS011;73676;43.582;22.268;2023-12-20T11:37:12;27.52;;;18.77;;
83694;SDS011;73676;43.582;22.268;2023-12-20T11:39:38;25.77;;;16.60;;
83694;SDS011;73676;43.582;22.268;2023-12-20T11:42:06;82.13;;;55.53;;
83694;SDS011;73676;43.582;22.268;2023-12-20T11:44:34;47.83;;;29.08;;
83694;SDS011;73676;43.582;22.268;2023-12-20T11:46:59;32.72;;;19.13;;
83694;SDS011;73676;43.582;22.268;2023-12-20T11:49:25;57.90;;;35.45;;
83694;SDS011;73676;43.582;22.268;2023-12-20T11:51:51;37.15;;;21.50;;
83694;SDS011;73676;43.582;22.268;2023-12-20T11:54:17;28.60;;;17.38;;
83694;SDS011;73676;43.582;22.268;2023-12-20T11:56:43;147.68;;;77.75;;
83694;SDS011;73676;43.582;22.268;2023-12-20T11:59:08;98.82;;;54.45;;
83694;SDS011;73676;43.582;22.268;2023-12-20T12:01:33;63.00;;;39.10;;
83694;SDS011;73676;43.582;22.268;2023-12-20T12:04:05;42.30;;;27.55;;
83694;SDS011;73676;43.582;22.268;2023-12-20T12:06:31;85.53;;;51.50;;
83694;SDS011;73676;43.582;22.268;2023-12-20T12:08:57;69.43;;;46.55;;
83694;SDS011;73676;43.582;22.268;2023-12-20T12:11:22;40.88;;;27.58;;
83694;SDS011;73676;43.582;22.268;2023-12-20T12:13:48;28.17;;;19.80;;
83694;SDS011;73676;43.582;22.268;2023-12-20T12:16:16;24.65;;;17.77;;
83694;SDS011;73676;43.582;22.268;2023-12-20T12:21:08;15.50;;;12.20;;
83694;SDS011;73676;43.582;22.268;2023-12-20T12:23:34;17.45;;;13.43;;
83694;SDS011;73676;43.582;22.268;2023-12-20T12:25:59;10.73;;;8.45;;
83694;SDS011;73676;43.582;22.268;2023-12-20T12:28:27;9.90;;;6.55;;
83694;SDS011;73676;43.582;22.268;2023-12-20T12:31:00;23.27;;;19.95;;
83694;SDS011;73676;43.582;22.268;2023-12-20T12:33:25;11.27;;;9.37;;
83694;SDS011;73676;43.582;22.268;2023-12-20T12:35:51;26.83;;;21.15;;
83694;SDS011;73676;43.582;22.268;2023-12-20T12:38:19;17.58;;;14.38;;
83694;SDS011;73676;43.582;22.268;2023-12-20T12:40:44;67.32;;;50.38;;
83694;SDS011;73676;43.582;22.268;2023-12-20T12:43:10;32.00;;;27.02;;
83694;SDS011;73676;43.582;22.268;2023-12-20T12:45:35;49.72;;;33.63;;
83694;SDS011;73676;43.582;22.268;2023-12-20T12:48:01;20.73;;;16.45;;
83694;SDS011;73676;43.582;22.268;2023-12-20T12:50:26;39.05;;;29.15;;
83694;SDS011;73676;43.582;22.268;2023-12-20T12:52:53;46.92;;;35.65;;
83694;SDS011;73676;43.582;22.268;2023-12-20T12:55:19;37.13;;;27.45;;
83694;SDS011;73676;43.582;22.268;2023-12-20T12:57:44;37.40;;;28.63;;
83694;SDS011;73676;43.582;22.268;2023-12-20T13:00:09;36.83;;;21.38;;
83694;SDS011;73676;43.582;22.268;2023-12-20T13:02:37;33.13;;;25.83;;
83694;SDS011;73676;43.582;22.268;2023-12-20T13:05:03;40.15;;;29.48;;
83694;SDS011;73676;43.582;22.268;2023-12-20T13:07:29;36.90;;;26.60;;
83694;SDS011;73676;43.582;22.268;2023-12-20T13:09:54;326.38;;;176.38;;
83694;SDS011;73676;43.582;22.268;2023-12-20T13:12:20;35.90;;;24.35;;
83694;SDS011;73676;43.582;22.268;2023-12-20T13:14:46;71.22;;;48.17;;
83694;SDS011;73676;43.582;22.268;2023-12-20T13:17:12;35.13;;;23.13;;
83694;SDS011;73676;43.582;22.268;2023-12-20T13:19:38;15.35;;;11.68;;
83694;SDS011;73676;43.582;22.268;2023-12-20T13:22:04;20.63;;;14.80;;
83694;SDS011;73676;43.582;22.268;2023-12-20T13:24:29;54.03;;;36.50;;
83694;SDS011;73676;43.582;22.268;2023-12-20T13:26:55;162.00;;;101.90;;
83694;SDS011;73676;43.582;22.268;2023-12-20T13:29:20;49.13;;;35.30;;
83694;SDS011;73676;43.582;22.268;2023-12-20T13:31:45;46.92;;;32.05;;
83694;SDS011;73676;43.582;22.268;2023-12-20T13:34:10;129.93;;;86.40;;
83694;SDS011;73676;43.582;22.268;2023-12-20T13:36:36;80.90;;;57.47;;
83694;SDS011;73676;43.582;22.268;2023-12-20T13:39:02;95.80;;;69.53;;
83694;SDS011;73676;43.582;22.268;2023-12-20T13:41:29;98.68;;;70.53;;
83694;SDS011;73676;43.582;22.268;2023-12-20T13:43:55;282.63;;;166.50;;
83694;SDS011;73676;43.582;22.268;2023-12-20T13:46:20;188.77;;;122.07;;
83694;SDS011;73676;43.582;22.268;2023-12-20T13:48:45;188.23;;;122.38;;
83694;SDS011;73676;43.582;22.268;2023-12-20T13:51:11;208.27;;;130.65;;
83694;SDS011;73676;43.582;22.268;2023-12-20T13:53:36;222.90;;;138.70;;
83694;SDS011;73676;43.582;22.268;2023-12-20T13:56:03;134.35;;;85.82;;
83694;SDS011;73676;43.582;22.268;2023-12-20T13:58:28;186.77;;;112.68;;
83694;SDS011;73676;43.582;22.268;2023-12-20T14:00:54;193.98;;;104.90;;
83694;SDS011;73676;43.582;22.268;2023-12-20T14:03:20;102.53;;;58.47;;
83694;SDS011;73676;43.582;22.268;2023-12-20T14:05:45;89.07;;;56.08;;